createdAt,value
2019-04-06T00:01:11.491Z,69.40
2019-04-06T00:03:40.003Z,68.70
2019-04-06T00:06:08.337Z,73.90
2019-04-06T00:08:36.814Z,76.40
2019-04-06T00:11:05.451Z,75.80
2019-04-06T00:13:34.008Z,74.60
2019-04-06T00:16:02.479Z,75.20
2019-04-06T00:18:30.836Z,72.80
2019-04-06T00:20:59.107Z,71.60
2019-04-06T00:23:27.411Z,74.80
2019-04-06T00:25:55.874Z,75.40
2019-04-06T00:28:24.270Z,76.30
2019-04-06T00:31:03.527Z,73.20
2019-04-06T00:33:33.088Z,73.90
2019-04-06T00:36:01.620Z,74.60
2019-04-06T00:38:30.136Z,77.70
2019-04-06T00:40:58.483Z,78.40
2019-04-06T00:43:26.810Z,77.30
2019-04-06T00:45:56.004Z,76.80
2019-04-06T00:48:24.310Z,76.60
2019-04-06T00:50:52.572Z,76.50
2019-04-06T00:53:21.161Z,74.50
2019-04-06T00:55:55.490Z,74.20
2019-04-06T00:58:20.365Z,75.40
2019-04-06T01:00:48.775Z,75.50
2019-04-06T01:03:17.216Z,73.30
2019-04-06T01:05:45.858Z,72.90
2019-04-06T01:08:14.199Z,74.80
2019-04-06T01:10:42.538Z,76.70
2019-04-06T01:13:10.984Z,77.30
2019-04-06T01:15:39.598Z,71.90
2019-04-06T01:18:07.864Z,74.80
2019-04-06T01:20:36.129Z,72.80
2019-04-06T01:23:04.592Z,72.70
2019-04-06T01:25:33.140Z,73.70
2019-04-06T01:28:01.475Z,74.90
2019-04-06T01:30:29.970Z,74.30
2019-04-06T01:32:58.514Z,69.30
2019-04-06T01:35:27.074Z,69.70
2019-04-06T01:37:55.620Z,71.10
2019-04-06T01:40:24.039Z,72.50
2019-04-06T01:42:52.470Z,74.50
2019-04-06T01:45:20.869Z,74.50
2019-04-06T01:47:49.997Z,76.00
2019-04-06T01:50:18.380Z,75.00
2019-04-06T01:52:46.908Z,76.10
2019-04-06T01:55:15.541Z,75.90
2019-04-06T01:57:44.003Z,74.70
2019-04-06T02:00:14.110Z,76.10
2019-04-06T02:02:43.637Z,76.00
2019-04-06T02:05:11.987Z,76.40
2019-04-06T02:07:40.600Z,75.80
2019-04-06T02:10:09.058Z,77.10
2019-04-06T02:12:37.399Z,77.00
2019-04-06T02:15:06.175Z,78.40
2019-04-06T02:17:34.433Z,78.80
2019-04-06T02:20:02.883Z,76.10
2019-04-06T02:22:33.240Z,77.10
2019-04-06T02:25:01.820Z,77.00
2019-04-06T02:27:30.392Z,74.60
2019-04-06T02:30:19.260Z,75.20
2019-04-06T02:33:07.653Z,74.60
2019-04-06T02:35:55.517Z,76.60
2019-04-06T02:38:41.758Z,78.50
2019-04-06T02:41:12.209Z,77.30
2019-04-06T02:43:41.918Z,78.10
2019-04-06T02:46:10.369Z,78.90
2019-04-06T02:48:39.591Z,79.00
2019-04-06T02:51:08.098Z,79.00
2019-04-06T02:53:36.450Z,76.30
2019-04-06T02:56:05.015Z,75.40
2019-04-06T02:58:33.615Z,74.50
2019-04-06T03:01:02.132Z,74.30
2019-04-06T03:03:30.606Z,73.80
2019-04-06T03:05:59.220Z,74.50
2019-04-06T03:08:27.826Z,74.80
2019-04-06T03:10:56.251Z,77.20
2019-04-06T03:13:24.660Z,78.60
2019-04-06T03:15:53.234Z,80.40
2019-04-06T03:18:21.651Z,81.20
2019-04-06T03:20:50.252Z,81.90
2019-04-06T03:23:18.887Z,80.60
2019-04-06T03:25:47.385Z,81.40
2019-04-06T03:28:15.843Z,80.90
2019-04-06T03:30:44.564Z,82.20
2019-04-06T03:33:13.445Z,83.60
2019-04-06T03:35:46.995Z,83.60
2019-04-06T03:38:12.394Z,84.20
2019-04-06T03:40:40.923Z,81.70
2019-04-06T03:43:09.511Z,83.80
2019-04-06T03:45:37.833Z,83.50
2019-04-06T03:48:06.363Z,81.30
2019-04-06T03:50:34.659Z,77.60
2019-04-06T03:53:03.072Z,80.30
2019-04-06T03:55:31.519Z,80.50
2019-04-06T03:58:00.163Z,77.20
2019-04-06T04:00:28.531Z,81.70
2019-04-06T04:02:57.443Z,78.70
2019-04-06T04:05:26.045Z,79.10
2019-04-06T04:07:55.133Z,77.30
2019-04-06T04:10:29.966Z,77.90
2019-04-06T04:12:58.378Z,78.30
2019-04-06T04:15:26.921Z,81.00
2019-04-06T04:17:55.378Z,83.30
2019-04-06T04:20:23.742Z,84.90
2019-04-06T04:22:52.414Z,86.40
2019-04-06T04:25:20.815Z,86.20
2019-04-06T04:27:49.247Z,86.30
2019-04-06T04:30:31.515Z,86.50
2019-04-06T04:32:46.999Z,87.00
2019-04-06T04:35:18.158Z,86.50
2019-04-06T04:37:44.765Z,86.80
2019-04-06T04:40:13.475Z,87.20
2019-04-06T04:42:42.001Z,86.90
2019-04-06T04:45:10.356Z,86.20
2019-04-06T04:47:38.653Z,87.40
2019-04-06T04:50:08.031Z,85.00
2019-04-06T04:52:37.156Z,85.30
2019-04-06T04:55:06.856Z,86.70
2019-04-06T04:57:40.868Z,87.00
2019-04-06T05:00:04.784Z,86.80
2019-04-06T05:02:33.233Z,89.00
2019-04-06T05:05:01.575Z,90.30
2019-04-06T05:07:30.065Z,91.30
2019-04-06T05:09:58.352Z,91.20
2019-04-06T05:12:26.654Z,91.10
2019-04-06T05:15:00.289Z,91.10
2019-04-06T05:17:28.680Z,90.90
2019-04-06T05:19:57.047Z,91.60
2019-04-06T05:22:25.340Z,92.00
2019-04-06T05:24:53.735Z,92.40
2019-04-06T05:27:22.110Z,92.40
2019-04-06T05:29:50.406Z,92.40
2019-04-06T05:32:18.866Z,92.70
2019-04-06T05:34:47.194Z,93.10
2019-04-06T05:37:15.498Z,93.10
2019-04-06T05:39:43.788Z,93.60
2019-04-06T05:42:12.070Z,93.60
2019-04-06T05:44:40.379Z,93.90
2019-04-06T05:47:08.700Z,94.10
2019-04-06T05:49:37.009Z,93.90
2019-04-06T05:52:05.302Z,93.40
2019-04-06T05:54:34.416Z,93.60
2019-04-06T05:57:02.766Z,94.00
2019-04-06T05:59:31.199Z,94.10
2019-04-06T06:01:59.737Z,94.10
2019-04-06T06:04:28.265Z,93.80
2019-04-06T06:06:56.593Z,93.90
2019-04-06T06:09:24.954Z,93.50
2019-04-06T06:11:55.504Z,93.20
2019-04-06T06:14:23.632Z,92.10
2019-04-06T06:16:52.210Z,92.80
2019-04-06T06:19:20.999Z,92.60
2019-04-06T06:21:49.655Z,93.10
2019-04-06T06:24:18.114Z,93.00
2019-04-06T06:26:46.638Z,93.10
2019-04-06T06:29:15.147Z,93.30
2019-04-06T06:31:43.720Z,93.20
2019-04-06T06:34:12.086Z,93.60
2019-04-06T06:36:40.996Z,93.20
2019-04-06T06:39:09.458Z,92.80
2019-04-06T06:41:37.763Z,91.70
2019-04-06T06:44:06.048Z,91.30
2019-04-06T06:46:34.519Z,90.00
2019-04-06T06:49:03.219Z,90.90
2019-04-06T06:51:31.670Z,91.90
2019-04-06T06:54:00.487Z,92.50
2019-04-06T06:56:29.166Z,92.10
2019-04-06T06:58:57.599Z,92.40
2019-04-06T07:01:26.352Z,93.20
2019-04-06T07:03:54.720Z,93.10
2019-04-06T07:06:23.212Z,93.00
2019-04-06T07:08:51.760Z,93.20
2019-04-06T07:11:20.576Z,93.30
2019-04-06T07:13:48.905Z,93.50
2019-04-06T07:16:17.330Z,93.80
2019-04-06T07:18:46.159Z,93.70
2019-04-06T07:21:16.571Z,93.40
2019-04-06T07:23:43.878Z,92.30
2019-04-06T07:26:12.285Z,92.40
2019-04-06T07:28:40.734Z,92.40
2019-04-06T07:31:09.029Z,92.00
2019-04-06T07:33:40.322Z,92.30
2019-04-06T07:36:08.828Z,91.90
2019-04-06T07:38:38.312Z,92.00
2019-04-06T07:41:06.855Z,92.60
2019-04-06T07:43:35.228Z,92.50
2019-04-06T07:46:03.942Z,92.80
2019-04-06T07:48:32.441Z,92.90
2019-04-06T07:51:00.976Z,92.80
2019-04-06T07:53:29.463Z,93.30
2019-04-06T07:55:57.749Z,93.20
2019-04-06T07:58:26.087Z,93.30
2019-04-06T08:00:57.400Z,93.60
2019-04-06T08:03:25.969Z,93.60
2019-04-06T08:05:54.679Z,93.70
2019-04-06T08:08:23.047Z,93.30
2019-04-06T08:10:51.505Z,93.10
2019-04-06T08:13:20.718Z,92.60
2019-04-06T08:15:49.601Z,91.60
2019-04-06T08:18:18.233Z,91.50
2019-04-06T08:20:46.596Z,90.00
2019-04-06T08:23:15.185Z,87.30
2019-04-06T08:25:43.456Z,85.90
2019-04-06T08:28:11.965Z,85.70
2019-04-06T08:30:46.355Z,83.70
2019-04-06T08:33:09.791Z,82.90
2019-04-06T08:35:38.283Z,79.90
2019-04-06T08:38:06.556Z,79.90
2019-04-06T08:40:34.882Z,77.70
2019-04-06T08:43:03.459Z,73.60
2019-04-06T08:45:32.017Z,72.30
2019-04-06T08:48:00.527Z,73.70
2019-04-06T08:50:29.026Z,71.40
2019-04-06T08:52:57.669Z,70.30
2019-04-06T08:55:26.009Z,72.20
2019-04-06T08:57:54.455Z,71.30
2019-04-06T09:00:23.297Z,67.80
2019-04-06T09:02:52.159Z,69.90
2019-04-06T09:05:20.517Z,70.20
2019-04-06T09:07:49.054Z,69.20
2019-04-06T09:10:17.469Z,72.00
2019-04-06T09:12:45.913Z,72.10
2019-04-06T09:15:14.441Z,69.50
2019-04-06T09:17:42.790Z,74.10
2019-04-06T09:20:11.263Z,76.10
2019-04-06T09:22:39.606Z,75.60
2019-04-06T09:25:07.918Z,75.40
2019-04-06T09:27:36.292Z,77.80
2019-04-06T09:30:07.419Z,75.70
2019-04-06T09:32:35.850Z,76.80
2019-04-06T09:35:05.216Z,73.70
2019-04-06T09:37:33.514Z,74.00
2019-04-06T09:40:01.926Z,72.90
2019-04-06T09:42:30.665Z,70.80
2019-04-06T09:45:00.778Z,72.00
2019-04-06T09:47:42.249Z,70.40
2019-04-06T09:50:15.039Z,73.00
2019-04-06T09:53:01.253Z,72.40
2019-04-06T09:55:31.265Z,72.10
2019-04-06T09:58:12.780Z,72.00
2019-04-06T10:00:45.924Z,72.90
2019-04-06T10:03:15.839Z,72.00
2019-04-06T10:05:45.744Z,71.50
2019-04-06T10:08:15.937Z,68.10
2019-04-06T10:10:55.031Z,69.70
2019-04-06T10:13:41.274Z,67.00
2019-04-06T10:16:17.278Z,68.80
2019-04-06T10:18:53.350Z,67.80
2019-04-06T10:21:39.953Z,69.50
2019-04-06T10:24:19.480Z,69.40
2019-04-06T10:26:58.702Z,69.20
2019-04-06T10:29:48.907Z,72.30
2019-04-06T10:32:33.321Z,71.40
2019-04-06T10:35:15.921Z,72.00
2019-04-06T10:38:03.406Z,73.50
2019-04-06T10:40:33.534Z,71.60
2019-04-06T10:43:08.694Z,69.80
2019-04-06T10:49:04.151Z,70.70
2019-04-06T10:51:46.970Z,73.60
2019-04-06T10:54:23.265Z,71.50
2019-04-06T10:57:09.855Z,73.70
2019-04-06T10:59:39.910Z,73.40
2019-04-06T11:02:25.643Z,73.60
2019-04-06T11:05:04.590Z,77.10
2019-04-06T11:07:34.600Z,77.30
2019-04-06T11:10:07.088Z,78.50
2019-04-06T11:12:49.371Z,79.50
2019-04-06T11:15:22.742Z,82.70
2019-04-06T11:17:55.749Z,82.30
2019-04-06T11:20:25.855Z,83.20
2019-04-06T11:23:01.844Z,85.60
2019-04-06T11:25:45.088Z,86.70
2019-04-06T11:28:17.869Z,87.60
2019-04-06T11:30:50.578Z,89.00
2019-04-06T11:33:29.544Z,89.90
2019-04-06T11:36:19.200Z,90.20
2019-04-06T11:38:49.518Z,90.50
2019-04-06T11:41:19.888Z,91.00
2019-04-06T11:44:01.772Z,90.30
2019-04-06T11:46:34.900Z,90.70
2019-04-06T11:49:05.660Z,90.70
2019-04-06T11:51:48.036Z,91.10
2019-04-06T11:54:32.968Z,90.90
2019-04-06T11:57:03.333Z,91.50
2019-04-06T11:59:45.414Z,91.30
2019-04-06T12:02:24.577Z,91.60
2019-04-06T12:04:54.641Z,90.70
2019-04-06T12:07:27.242Z,91.60
2019-04-06T12:10:11.903Z,91.70
2019-04-06T12:12:44.785Z,91.80
2019-04-06T12:15:17.345Z,92.50
2019-04-06T12:17:50.421Z,92.10
2019-04-06T12:20:20.785Z,92.40
2019-04-06T12:22:53.460Z,92.40
2019-04-06T12:25:26.439Z,92.90
2019-04-06T12:27:56.554Z,93.80
2019-04-06T12:30:37.366Z,92.90
2019-04-06T12:33:01.699Z,92.90
2019-04-06T12:35:40.688Z,93.40
2019-04-06T12:38:25.399Z,93.00
2019-04-06T12:41:01.579Z,92.50
2019-04-06T12:43:35.343Z,93.40
2019-04-06T12:46:14.770Z,93.20
2019-04-06T12:48:52.525Z,92.60
2019-04-06T12:51:28.544Z,92.60
2019-04-06T12:54:01.714Z,92.10
2019-04-06T12:56:48.806Z,92.70
2019-04-06T12:59:25.912Z,92.70
2019-04-06T13:02:02.570Z,92.80
2019-04-06T13:04:51.157Z,92.80
2019-04-06T13:07:39.241Z,93.10
2019-04-06T13:10:12.337Z,93.50
2019-04-06T13:13:00.562Z,93.20
2019-04-06T13:15:49.227Z,93.20
2019-04-06T13:18:19.448Z,92.70
2019-04-06T13:20:59.044Z,93.20
2019-04-06T13:23:44.731Z,93.10
2019-04-06T13:26:31.168Z,92.80
2019-04-06T13:29:04.141Z,92.70
2019-04-06T13:31:50.514Z,91.80
2019-04-06T13:34:39.224Z,91.70
2019-04-06T13:37:10.222Z,91.40
2019-04-06T13:39:52.308Z,91.90
2019-04-06T13:42:28.033Z,92.20
2019-04-06T13:45:10.548Z,91.60
2019-04-06T13:47:56.927Z,92.40
2019-04-06T13:50:29.628Z,92.30
2019-04-06T13:53:02.536Z,92.20
2019-04-06T13:55:50.326Z,92.50
2019-04-06T13:58:20.310Z,92.00
2019-04-06T14:00:49.703Z,92.00
2019-04-06T14:03:25.665Z,92.20
2019-04-06T14:06:12.857Z,92.30
2019-04-06T14:08:43.328Z,91.40
2019-04-06T14:11:29.674Z,91.20
2019-04-06T14:14:08.389Z,91.00
2019-04-06T14:16:53.760Z,91.30
2019-04-06T14:19:29.849Z,91.50
2019-04-06T14:22:05.516Z,91.40
2019-04-06T14:24:38.427Z,90.50
2019-04-06T14:27:17.761Z,91.60
2019-04-06T14:29:56.876Z,91.00
2019-04-06T14:32:26.850Z,90.20
2019-04-06T14:35:08.601Z,91.80
2019-04-06T14:37:41.538Z,91.50
2019-04-06T14:40:17.502Z,91.90
2019-04-06T14:42:48.223Z,92.50
2019-04-06T14:45:33.463Z,92.60
2019-04-06T14:48:20.129Z,92.50
2019-04-06T14:50:59.442Z,91.80
2019-04-06T14:53:32.634Z,91.40
2019-04-06T14:56:08.925Z,92.30
2019-04-06T14:58:42.671Z,92.60
2019-04-06T15:01:15.683Z,92.40
2019-04-06T15:03:48.921Z,92.60
2019-04-06T15:06:31.961Z,92.50
2019-04-06T15:09:08.062Z,91.70
2019-04-06T15:11:40.927Z,91.10
2019-04-06T15:14:26.297Z,92.30
2019-04-06T15:16:59.235Z,91.90
2019-04-06T15:19:35.735Z,92.40
2019-04-06T15:22:14.842Z,92.50
2019-04-06T15:24:45.416Z,92.40
2019-04-06T15:27:32.206Z,92.80
2019-04-06T15:30:08.025Z,92.70
2019-04-06T15:32:40.689Z,92.80
2019-04-06T15:35:16.554Z,92.90
2019-04-06T15:38:02.573Z,93.30
2019-04-06T15:40:34.312Z,93.30
2019-04-06T15:43:18.820Z,93.10
2019-04-06T15:45:48.487Z,92.90
2019-04-06T15:48:38.012Z,93.20
2019-04-06T15:51:06.066Z,93.00
2019-04-06T15:53:42.323Z,93.20
2019-04-06T15:56:12.492Z,93.60
2019-04-06T15:58:58.680Z,93.90
2019-04-06T16:01:40.805Z,94.20
2019-04-06T16:04:29.146Z,94.50
2019-04-06T16:06:59.213Z,94.90
2019-04-06T16:09:28.460Z,94.70
2019-04-06T16:12:04.233Z,94.60
2019-04-06T16:14:40.371Z,94.40
2019-04-06T16:17:28.397Z,94.80
2019-04-06T16:19:58.405Z,94.60
2019-04-06T16:22:30.311Z,93.90
2019-04-06T16:25:00.348Z,94.30
2019-04-06T16:27:46.133Z,94.60
2019-04-06T16:30:22.356Z,95.00
2019-04-06T16:33:10.804Z,94.90
2019-04-06T16:35:46.529Z,94.80
2019-04-06T16:38:16.981Z,94.30
2019-04-06T16:40:49.979Z,94.90
2019-04-06T16:43:29.191Z,94.90
2019-04-06T16:46:04.909Z,95.20
2019-04-06T16:48:51.408Z,95.50
2019-04-06T16:51:21.434Z,95.40
2019-04-06T16:53:53.477Z,95.00
2019-04-06T16:56:24.347Z,94.90
2019-04-06T16:58:55.297Z,94.90
2019-04-06T17:01:31.169Z,95.00
2019-04-06T17:04:07.083Z,95.60
2019-04-06T17:06:53.296Z,95.60
2019-04-06T17:09:35.601Z,95.30
2019-04-06T17:12:06.119Z,95.20
2019-04-06T17:14:52.930Z,95.00
2019-04-06T17:17:23.169Z,95.20
2019-04-06T17:20:05.146Z,95.60
2019-04-06T17:22:38.308Z,95.90
2019-04-06T17:25:24.520Z,95.90
2019-04-06T17:28:03.191Z,96.10
2019-04-06T17:30:33.210Z,96.30
2019-04-06T17:33:02.759Z,96.00
2019-04-06T17:35:44.808Z,95.80
2019-04-06T17:38:23.851Z,95.80
2019-04-06T17:40:53.895Z,96.00
2019-04-06T17:43:23.149Z,96.30
2019-04-06T17:46:09.747Z,96.40
2019-04-06T17:48:39.864Z,96.10
2019-04-06T17:51:18.688Z,96.10
2019-04-06T17:53:49.053Z,96.40
2019-04-06T17:56:25.569Z,96.90
2019-04-06T17:58:58.406Z,97.10
2019-04-06T18:01:36.333Z,97.40
2019-04-06T18:04:09.422Z,97.30
2019-04-06T18:06:49.477Z,97.30
2019-04-06T18:09:19.700Z,97.40
2019-04-06T18:12:09.091Z,97.50
2019-04-06T18:14:37.875Z,97.50
2019-04-06T18:17:06.657Z,97.50
2019-04-06T18:19:36.014Z,97.60
2019-04-06T18:22:04.588Z,97.60
2019-04-06T18:24:33.074Z,97.80
2019-04-06T18:27:03.241Z,97.90
2019-04-06T18:29:32.014Z,97.90
2019-04-06T18:32:02.880Z,98.00
2019-04-06T18:34:32.130Z,97.90
2019-04-06T18:37:07.977Z,98.00
2019-04-06T18:39:36.348Z,97.80
2019-04-06T18:42:05.212Z,97.80
2019-04-06T18:44:33.664Z,97.90
2019-04-06T18:47:02.302Z,97.80
2019-04-06T18:49:30.758Z,97.70
2019-04-06T18:51:59.316Z,97.60
2019-04-06T18:54:27.811Z,97.90
2019-04-06T18:56:56.787Z,98.00
2019-04-06T18:59:25.366Z,97.70
2019-04-06T19:01:54.117Z,97.40
2019-04-06T19:04:22.709Z,97.20
2019-04-06T19:06:51.063Z,97.00
2019-04-06T19:09:23.775Z,96.90
2019-04-06T19:11:55.519Z,96.80
2019-04-06T19:14:18.841Z,97.40
2019-04-06T19:16:47.168Z,97.80
2019-04-06T19:19:15.438Z,98.00
2019-04-06T19:21:44.415Z,98.20
2019-04-06T19:24:13.771Z,98.40
2019-04-06T19:26:42.225Z,98.60
2019-04-06T19:29:10.910Z,98.80
2019-04-06T19:31:39.483Z,98.70
2019-04-06T19:34:07.852Z,98.70
2019-04-06T19:36:36.287Z,98.70
2019-04-06T19:39:07.632Z,98.70
2019-04-06T19:41:35.938Z,98.60
2019-04-06T19:44:04.651Z,98.30
2019-04-06T19:46:33.126Z,98.40
2019-04-06T19:49:01.809Z,98.30
2019-04-06T19:51:30.223Z,98.40
2019-04-06T19:53:58.581Z,98.30
2019-04-06T19:56:27.650Z,98.40
2019-04-06T19:58:56.385Z,98.30
2019-04-06T20:01:24.913Z,98.30
2019-04-06T20:03:53.329Z,98.10
2019-04-06T20:06:21.754Z,98.00
2019-04-06T20:08:50.165Z,97.80
2019-04-06T20:11:19.191Z,97.40
2019-04-06T20:13:47.966Z,97.20
2019-04-06T20:16:16.369Z,97.40
2019-04-06T20:18:44.737Z,97.90
2019-04-06T20:21:13.028Z,98.40
2019-04-06T20:23:41.395Z,98.50
2019-04-06T20:26:09.826Z,99.00
2019-04-06T20:28:38.110Z,98.50
2019-04-06T20:31:06.529Z,98.50
2019-04-06T20:33:46.388Z,98.60
2019-04-06T20:36:04.713Z,98.50
2019-04-06T20:38:33.138Z,98.50
2019-04-06T20:41:01.774Z,98.50
2019-04-06T20:43:30.455Z,98.30
2019-04-06T20:46:01.149Z,98.30
2019-04-06T20:48:29.654Z,98.30
2019-04-06T20:50:58.454Z,98.20
2019-04-06T20:53:26.953Z,98.20
2019-04-06T20:55:55.304Z,98.30
2019-04-06T20:58:23.884Z,98.30
2019-04-06T21:00:52.469Z,98.50
2019-04-06T21:03:21.371Z,98.40
2019-04-06T21:05:51.252Z,98.30
2019-04-06T21:08:20.081Z,98.40
2019-04-06T21:10:48.655Z,98.50
2019-04-06T21:13:17.461Z,98.60
2019-04-06T21:15:46.191Z,98.50
2019-04-06T21:18:14.663Z,98.20
2019-04-06T21:20:43.150Z,98.20
2019-04-06T21:23:11.907Z,98.20
2019-04-06T21:25:40.464Z,98.00
2019-04-06T21:28:10.560Z,98.20
2019-04-06T21:30:39.081Z,98.40
2019-04-06T21:33:07.943Z,98.50
2019-04-06T21:35:36.822Z,98.40
2019-04-06T21:38:05.606Z,98.40
2019-04-06T21:40:34.127Z,98.30
2019-04-06T21:43:03.081Z,98.40
2019-04-06T21:45:31.561Z,98.50
2019-04-06T21:48:00.429Z,98.30
2019-04-06T21:50:29.303Z,98.30
2019-04-06T21:52:57.883Z,98.50
2019-04-06T21:55:26.573Z,98.50
2019-04-06T21:57:55.338Z,98.40
2019-04-06T22:00:38.789Z,98.10
2019-04-06T22:03:07.151Z,97.70
2019-04-06T22:05:36.225Z,98.00
2019-04-06T22:08:04.971Z,98.40
2019-04-06T22:10:34.295Z,98.40
2019-04-06T22:13:02.810Z,98.10
2019-04-06T22:15:31.425Z,98.40
2019-04-06T22:18:00.243Z,98.40
2019-04-06T22:20:28.860Z,98.50
2019-04-06T22:22:57.347Z,98.00
2019-04-06T22:25:25.834Z,98.20
2019-04-06T22:27:54.343Z,97.80
2019-04-06T22:30:22.748Z,97.90
2019-04-06T22:32:51.397Z,97.30
2019-04-06T22:35:20.400Z,97.40
2019-04-06T22:37:49.665Z,97.50
2019-04-06T22:40:18.611Z,97.50
2019-04-06T22:42:47.115Z,97.60
2019-04-06T22:45:17.466Z,97.90
2019-04-06T22:47:46.303Z,98.00
2019-04-06T22:50:15.361Z,98.10
2019-04-06T22:52:43.804Z,97.80
2019-04-06T22:55:12.081Z,98.20
2019-04-06T22:57:40.919Z,98.10
2019-04-06T23:00:12.377Z,98.30
2019-04-06T23:02:42.769Z,98.20
2019-04-06T23:05:16.207Z,98.20
2019-04-06T23:07:45.136Z,98.10
2019-04-06T23:10:13.521Z,98.00
2019-04-06T23:12:42.357Z,97.80
2019-04-06T23:15:11.603Z,97.70
2019-04-06T23:17:40.190Z,98.00
2019-04-06T23:20:08.534Z,97.60
2019-04-06T23:22:36.895Z,97.50
2019-04-06T23:25:05.454Z,97.50
2019-04-06T23:27:34.171Z,97.10
2019-04-06T23:30:02.785Z,97.30
2019-04-06T23:32:31.925Z,97.60
2019-04-06T23:35:02.343Z,97.30
2019-04-06T23:37:31.123Z,97.30
2019-04-06T23:39:59.484Z,97.40
2019-04-06T23:42:27.775Z,97.90
2019-04-06T23:44:56.218Z,98.20
2019-04-06T23:47:25.368Z,98.30
2019-04-06T23:49:53.703Z,98.30
2019-04-06T23:52:22.772Z,98.40
2019-04-06T23:54:51.307Z,99.10
2019-04-06T23:57:20.870Z,99.00
2019-04-06T23:59:49.905Z,98.70
